SVA1651 OEAB-OEJN
Flight info
| Callsign | SVA1651 |
|---|---|
| Flight time | 0h 49m |
| Altitude | 24000 |
| Route | OEAB/13 DCT ABH B544 BOSUT BOSU2N OEJN/34R |
| Aircraft | A333/H-SDE3GHIJ2J3J5M1RVWXY/LB2D1 |
Departure
| Time | 2026-05-04 16:39 |
|---|---|
| Airport | Abha International Airport (OEAB) |
Arrival
| Time | 2026-05-04 17:28 |
|---|---|
| Airport | King Abdulaziz International Airport (OEJN) |
| Time | Latitude | Longitude | Altitude | Speed | Heading |
|---|---|---|---|---|---|
| 2026-05-04 16:24 | 18.23529 | 42.65855 | 6864 ft | 0 kts | 150° |
| 2026-05-04 16:31 | 18.23529 | 42.65854 | 6864 ft | 2 kts | 150° |
| 2026-05-04 16:32 | 18.23585 | 42.65866 | 6874 ft | 4 kts | 252° |
| 2026-05-04 16:33 | 18.23591 | 42.65885 | 6874 ft | 0 kts | 250° |
| 2026-05-04 16:34 | 18.23592 | 42.65884 | 6874 ft | 0 kts | 261° |
| 2026-05-04 16:34 | 18.23607 | 42.65861 | 6872 ft | 5 kts | 321° |
| 2026-05-04 16:35 | 18.23790 | 42.65644 | 6872 ft | 22 kts | 309° |
| 2026-05-04 16:35 | 18.24164 | 42.65161 | 6869 ft | 33 kts | 311° |
| 2026-05-04 16:36 | 18.24311 | 42.64966 | 6868 ft | 35 kts | 311° |
| 2026-05-04 16:36 | 18.24635 | 42.64547 | 6862 ft | 39 kts | 306° |
| 2026-05-04 16:37 | 18.24967 | 42.64435 | 6863 ft | 19 kts | 84° |
| 2026-05-04 16:37 | 18.24910 | 42.64539 | 6861 ft | 16 kts | 131° |
| 2026-05-04 16:37 | 18.24904 | 42.64546 | 6861 ft | 0 kts | 131° |
| 2026-05-04 16:38 | 18.24487 | 42.65079 | 6869 ft | 114 kts | 129° |
| 2026-05-04 16:39 | 18.22054 | 42.68203 | 8170 ft | 214 kts | 125° |
| 2026-05-04 16:39 | 18.21073 | 42.70605 | 10354 ft | 162 kts | 81° |
| 2026-05-04 16:40 | 18.22804 | 42.71042 | 10730 ft | 172 kts | 301° |
| 2026-05-04 16:40 | 18.24281 | 42.68840 | 11082 ft | 189 kts | 305° |
| 2026-05-04 16:41 | 18.25785 | 42.66426 | 11452 ft | 212 kts | 294° |
| 2026-05-04 16:41 | 18.26943 | 42.62679 | 13478 ft | 195 kts | 285° |
| 2026-05-04 16:42 | 18.28968 | 42.58721 | 14983 ft | 215 kts | 306° |
| 2026-05-04 16:43 | 18.30948 | 42.56141 | 15722 ft | 237 kts | 308° |
| 2026-05-04 16:43 | 18.33083 | 42.53326 | 16481 ft | 257 kts | 306° |
| 2026-05-04 16:43 | 18.34196 | 42.51782 | 16856 ft | 273 kts | 305° |
| 2026-05-04 16:44 | 18.39295 | 42.44600 | 18109 ft | 337 kts | 305° |
| 2026-05-04 16:45 | 18.42244 | 42.40503 | 18741 ft | 361 kts | 306° |
| 2026-05-04 16:46 | 18.46843 | 42.34157 | 19583 ft | 365 kts | 306° |
| 2026-05-04 16:46 | 18.49919 | 42.29890 | 20179 ft | 367 kts | 306° |
| 2026-05-04 16:47 | 18.52991 | 42.25613 | 20754 ft | 370 kts | 306° |
| 2026-05-04 16:47 | 18.56103 | 42.21275 | 21378 ft | 373 kts | 306° |
| 2026-05-04 16:48 | 18.60830 | 42.14680 | 22311 ft | 378 kts | 306° |
| 2026-05-04 16:48 | 18.62419 | 42.12461 | 22647 ft | 380 kts | 306° |
| 2026-05-04 16:49 | 18.65618 | 42.07992 | 23277 ft | 384 kts | 306° |
| 2026-05-04 16:49 | 18.68850 | 42.03477 | 23918 ft | 387 kts | 306° |
| 2026-05-04 16:50 | 18.72108 | 41.98921 | 24049 ft | 389 kts | 306° |
| 2026-05-04 16:50 | 18.75375 | 41.94348 | 24018 ft | 391 kts | 306° |
| 2026-05-04 16:51 | 18.78647 | 41.89765 | 24018 ft | 391 kts | 306° |
| 2026-05-04 16:51 | 18.80283 | 41.87475 | 24016 ft | 391 kts | 305° |
| 2026-05-04 16:51 | 18.83550 | 41.82892 | 23984 ft | 391 kts | 306° |
| 2026-05-04 16:52 | 18.86815 | 41.78309 | 23979 ft | 391 kts | 306° |
| 2026-05-04 16:52 | 18.88453 | 41.76011 | 23957 ft | 391 kts | 305° |
| 2026-05-04 16:53 | 18.91744 | 41.71387 | 23945 ft | 403 kts | 305° |
| 2026-05-04 16:53 | 18.96356 | 41.64890 | 23931 ft | 419 kts | 305° |
| 2026-05-04 16:54 | 18.98108 | 41.62429 | 23930 ft | 419 kts | 305° |
| 2026-05-04 16:55 | 19.05108 | 41.52582 | 23915 ft | 419 kts | 305° |
| 2026-05-04 16:55 | 19.08609 | 41.47647 | 23894 ft | 420 kts | 305° |
| 2026-05-04 16:56 | 19.12112 | 41.42704 | 23882 ft | 420 kts | 305° |
| 2026-05-04 16:56 | 19.17363 | 41.35288 | 23880 ft | 420 kts | 305° |
| 2026-05-04 16:57 | 19.19112 | 41.32815 | 23876 ft | 420 kts | 305° |
| 2026-05-04 16:57 | 19.22613 | 41.27864 | 23875 ft | 420 kts | 305° |
| 2026-05-04 16:58 | 19.27838 | 41.20468 | 23874 ft | 420 kts | 305° |
| 2026-05-04 16:58 | 19.29586 | 41.17992 | 23874 ft | 420 kts | 305° |
| 2026-05-04 16:59 | 19.33081 | 41.13039 | 23873 ft | 420 kts | 305° |
| 2026-05-04 17:00 | 19.40026 | 41.03112 | 23872 ft | 419 kts | 304° |
| 2026-05-04 17:00 | 19.45160 | 40.95626 | 23870 ft | 419 kts | 304° |
| 2026-05-04 17:01 | 19.48582 | 40.90635 | 23866 ft | 419 kts | 304° |
| 2026-05-04 17:01 | 19.52003 | 40.85648 | 23859 ft | 418 kts | 304° |
| 2026-05-04 17:02 | 19.55425 | 40.80659 | 23859 ft | 418 kts | 304° |
| 2026-05-04 17:02 | 19.58845 | 40.75667 | 23870 ft | 418 kts | 304° |
| 2026-05-04 17:03 | 19.60556 | 40.73169 | 23860 ft | 418 kts | 304° |
| 2026-05-04 17:03 | 19.62263 | 40.70675 | 23862 ft | 418 kts | 304° |
| 2026-05-04 17:03 | 19.65682 | 40.65677 | 23862 ft | 418 kts | 304° |
| 2026-05-04 17:04 | 19.69098 | 40.60679 | 23856 ft | 418 kts | 304° |
| 2026-05-04 17:04 | 19.72513 | 40.55678 | 23851 ft | 418 kts | 304° |
| 2026-05-04 17:05 | 19.75924 | 40.50677 | 23856 ft | 418 kts | 304° |
| 2026-05-04 17:05 | 19.79311 | 40.45708 | 23854 ft | 418 kts | 304° |
| 2026-05-04 17:06 | 19.82726 | 40.40695 | 23857 ft | 419 kts | 304° |
| 2026-05-04 17:06 | 19.84429 | 40.38193 | 23846 ft | 419 kts | 304° |
| 2026-05-04 17:07 | 19.87847 | 40.33168 | 23843 ft | 419 kts | 304° |
| 2026-05-04 17:07 | 19.89000 | 40.31472 | 23845 ft | 419 kts | 304° |
| 2026-05-04 17:07 | 19.91260 | 40.28147 | 23843 ft | 419 kts | 304° |
| 2026-05-04 17:07 | 19.92967 | 40.25634 | 23842 ft | 419 kts | 304° |
| 2026-05-04 17:08 | 19.94673 | 40.23121 | 23844 ft | 419 kts | 303° |
| 2026-05-04 17:08 | 19.98076 | 40.18100 | 23837 ft | 419 kts | 304° |
| 2026-05-04 17:08 | 19.99779 | 40.15587 | 23837 ft | 419 kts | 303° |
| 2026-05-04 17:09 | 20.01481 | 40.13074 | 23842 ft | 419 kts | 303° |
| 2026-05-04 17:09 | 20.03183 | 40.10560 | 23831 ft | 419 kts | 303° |
| 2026-05-04 17:09 | 20.04881 | 40.08052 | 23832 ft | 418 kts | 303° |
| 2026-05-04 17:10 | 20.08280 | 40.03025 | 23835 ft | 418 kts | 303° |
| 2026-05-04 17:10 | 20.13369 | 39.95499 | 23831 ft | 418 kts | 305° |
| 2026-05-04 17:11 | 20.15288 | 39.93171 | 23825 ft | 420 kts | 314° |
| 2026-05-04 17:11 | 20.17581 | 39.91240 | 23826 ft | 422 kts | 323° |
| 2026-05-04 17:11 | 20.22603 | 39.87976 | 23839 ft | 423 kts | 327° |
| 2026-05-04 17:12 | 20.25145 | 39.86397 | 23835 ft | 423 kts | 327° |
| 2026-05-04 17:12 | 20.30232 | 39.83247 | 23828 ft | 427 kts | 327° |
| 2026-05-04 17:13 | 20.38064 | 39.78396 | 23839 ft | 435 kts | 327° |
| 2026-05-04 17:14 | 20.45907 | 39.73535 | 23834 ft | 434 kts | 327° |
| 2026-05-04 17:14 | 20.48515 | 39.71917 | 23845 ft | 434 kts | 327° |
| 2026-05-04 17:14 | 20.53744 | 39.68670 | 23848 ft | 435 kts | 328° |
| 2026-05-04 17:15 | 20.56321 | 39.67068 | 23846 ft | 435 kts | 327° |
| 2026-05-04 17:15 | 20.61551 | 39.63818 | 23848 ft | 435 kts | 327° |
| 2026-05-04 17:16 | 20.66777 | 39.60567 | 23847 ft | 435 kts | 327° |
| 2026-05-04 17:16 | 20.74624 | 39.55681 | 23857 ft | 435 kts | 327° |
| 2026-05-04 17:17 | 20.77232 | 39.54051 | 23856 ft | 434 kts | 327° |
| 2026-05-04 17:17 | 20.85851 | 39.51042 | 23863 ft | 440 kts | 345° |
| 2026-05-04 17:18 | 20.88837 | 39.50336 | 23866 ft | 440 kts | 345° |
| 2026-05-04 17:18 | 20.94785 | 39.48824 | 23867 ft | 439 kts | 343° |
| 2026-05-04 17:19 | 21.00597 | 39.47283 | 23277 ft | 421 kts | 343° |
| 2026-05-04 17:19 | 21.06191 | 39.45780 | 22172 ft | 408 kts | 343° |
| 2026-05-04 17:20 | 21.11625 | 39.44313 | 21032 ft | 398 kts | 343° |
| 2026-05-04 17:20 | 21.16983 | 39.42862 | 19601 ft | 396 kts | 343° |
| 2026-05-04 17:20 | 21.19647 | 39.42141 | 18910 ft | 395 kts | 343° |
| 2026-05-04 17:21 | 21.24888 | 39.40579 | 17454 ft | 387 kts | 329° |
| 2026-05-04 17:21 | 21.28548 | 39.36565 | 15961 ft | 376 kts | 304° |
| 2026-05-04 17:22 | 21.30140 | 39.34343 | 15197 ft | 374 kts | 307° |
| 2026-05-04 17:22 | 21.31884 | 39.32267 | 13862 ft | 389 kts | 314° |
| 2026-05-04 17:23 | 21.39111 | 39.28263 | 8102 ft | 399 kts | 340° |
| 2026-05-04 17:23 | 21.41644 | 39.27397 | 6507 ft | 379 kts | 342° |
| 2026-05-04 17:23 | 21.46415 | 39.25965 | 3943 ft | 337 kts | 344° |
| 2026-05-04 17:24 | 21.48607 | 39.25309 | 2848 ft | 319 kts | 343° |
| 2026-05-04 17:24 | 21.53906 | 39.23305 | 2282 ft | 222 kts | 338° |
| 2026-05-04 17:25 | 21.55453 | 39.22671 | 2103 ft | 249 kts | 338° |
| 2026-05-04 17:25 | 21.58509 | 39.21390 | 1746 ft | 201 kts | 337° |
| 2026-05-04 17:26 | 21.60722 | 39.20374 | 1248 ft | 150 kts | 339° |
| 2026-05-04 17:26 | 21.63299 | 39.19350 | 723 ft | 149 kts | 342° |
| 2026-05-04 17:27 | 21.65362 | 39.18560 | 456 ft | 146 kts | 340° |
| 2026-05-04 17:27 | 21.67095 | 39.17868 | 40 ft | 115 kts | 340° |
| 2026-05-04 17:28 | 21.67653 | 39.17653 | 37 ft | 26 kts | 343° |
| 2026-05-04 17:29 | 21.68327 | 39.17321 | 30 ft | 32 kts | 314° |
| 2026-05-04 17:29 | 21.68499 | 39.17099 | 31 ft | 22 kts | 298° |
| 2026-05-04 17:30 | 21.68106 | 39.17139 | 33 ft | 32 kts | 160° |
| 2026-05-04 17:31 | 21.67967 | 39.17194 | 34 ft | 21 kts | 159° |
| 2026-05-04 17:31 | 21.67358 | 39.17432 | 37 ft | 39 kts | 159° |
| 2026-05-04 17:32 | 21.67186 | 39.17415 | 37 ft | 14 kts | 240° |
| 2026-05-04 17:33 | 21.66880 | 39.17234 | 38 ft | 7 kts | 237° |
| 2026-05-04 17:33 | 21.66858 | 39.17177 | 38 ft | 0 kts | 257° |